Aérodrome :
LOGIN :

S'inscrire | Disclaimer

   EN    FR    IT 

 










Légende :    VFR   VFR Marginal   IFR   IFR Intensif   IFR Très Intensif
Visi : 
Plafond : 
>= 8 km
>= 3000ft
5 à 8 km
1000 à 3000 ft
1500m à 5 km
500 à 1000 ft
800 à 1500m
200 à 500 ft
< 800m
< 200 ft
Symboles :   Orages  Brouillard  Fortes neiges  Fortes précipitations  Vent > 20 kt
SIGMETs :   Divers  Orages  Givrage  Turbulence  Onde Orograph.  Cendres Volcan.







- Altitude de l'aérodrome : 26 ft
- Code IATA : GLA
- Voir les cartes d'approche


EGPF - Glasgow

DERNIER METAR :
  • 161650Z AUTO 17015KT 9999 -RA OVC015/// //////CB 16/14 Q1006

METARs EXPIRÉS :
  • 161620Z AUTO 17017KT 9999 BKN019/// OVC023/// //////CB 17/14 Q1007
  • 161550Z AUTO 17016G27KT 9999 OVC021 16/14 Q1007
  • 161520Z AUTO 17010KT 4900 -RADZ SCT013/// BKN017/// OVC022/// //////TCU 16/14 Q1008
  • 161450Z AUTO 17007KT 090V220 8000 -RA BKN011/// BKN018/// OVC022/// //////TCU 16/14 Q1009
  • 161420Z AUTO 15007KT 110V190 7000 -RA BKN012/// BKN018/// OVC036/// //////TCU 15/14 Q1009 RERA

TAF AMD TAF EGPF
Valide du 16 à 12h jusqu'au 17 à 12h UTC


161212Z 1612/1712 18012KT 9999 FEW012 SCT025
TEMPO 1612/1624 19015G25KT 6000 RA BKN012
PROB40
TEMPO 1612/1623 4000 RADZ +RA BKN008
PROB30
TEMPO 1710/1712 7000 SHRA
ATIS : +44 141 887 7449
Pas de NOTAMs connus pour ce terrain.
1 SIGMET publié pour la FIR Scottish (EGPX) :
 
Orages noyés dans la masse
EGPX SIGMET 01 VALID 161600/161800 EGRR
EGPX SCOTTISH FIR EMBD TS FCST WI N5905 W00635 - N5740 W00633 - N5737 W00848 - N5904 W00914 - N5905 W00635 TOP FL300 MOV NE 15KT NC=



MET'MAP, la Météo Aéronautique d'un coup d'oeil ! - Copyright ORBIFLY Décembre 2007 - Disclaimer

ORBIFLY MET'MAP TEAM :

Programmation & Développement : Alexandra Zaïnal
Conception & Développement : Baudouin d'Aumeries
Co-Programmation & Développement : Marc-Olivier Méhu
Soutien technique & logistique : Manuel Goepfert

Contact : metmap@orbifly.com




SOURCES & CREDITS :

   NOAA